Time;durP1;ratioP1;P1;durP2;ratioP2;P2;SDS_P1;SDS_P2;PMS_P1;PMS_P2;Temp;Humidity;BMP_temperature;BMP_pressure;BME280_temperature;BME280_humidity;BME280_pressure;Samples;Min_cycle;Max_cycle;Signal;HPM_P1;HPM_P2
2024/03/29 00:01:38;;;;;;;19.10;17.58;;;7.80;99.90;;;;;;4964566;28;20054;-69
2024/03/29 00:04:05;;;;;;;19.13;17.90;;;7.80;99.90;;;;;;4963261;28;20058;-70
2024/03/29 00:06:31;;;;;;;19.10;17.48;;;7.70;99.90;;;;;;4960710;28;20591;-70
2024/03/29 00:08:57;;;;;;;19.05;17.80;;;7.70;99.90;;;;;;4972927;28;20727;-69
2024/03/29 00:11:24;;;;;;;19.02;17.80;;;7.70;99.90;;;;;;4970027;28;20034;-70
2024/03/29 00:13:50;;;;;;;19.40;17.70;;;7.70;99.90;;;;;;4964434;28;20050;-69
2024/03/29 00:16:16;;;;;;;19.63;18.00;;;7.60;99.90;;;;;;4940191;28;20518;-68
2024/03/29 00:18:42;;;;;;;19.77;17.90;;;7.60;99.90;;;;;;4943133;28;20049;-69
2024/03/29 00:21:08;;;;;;;18.85;17.55;;;7.50;99.90;;;;;;4936926;28;20045;-69
2024/03/29 00:23:34;;;;;;;19.20;17.48;;;7.50;99.90;;;;;;4948878;28;20051;-69
2024/03/29 00:26:01;;;;;;;19.45;17.70;;;7.50;99.90;;;;;;4952624;28;20312;-69
2024/03/29 00:28:27;;;;;;;19.77;18.25;;;7.40;99.90;;;;;;4950812;28;20046;-67
2024/03/29 00:30:53;;;;;;;19.77;18.15;;;7.40;99.90;;;;;;4958780;28;20050;-67
2024/03/29 00:33:19;;;;;;;20.58;18.48;;;7.30;99.90;;;;;;4973076;28;20049;-69
2024/03/29 00:35:46;;;;;;;20.00;18.42;;;7.20;99.90;;;;;;4954279;28;20216;-69
2024/03/29 00:38:11;;;;;;;19.30;17.70;;;7.10;99.90;;;;;;4959469;28;20050;-69
2024/03/29 00:40:38;;;;;;;20.13;18.55;;;6.90;99.90;;;;;;4953858;28;20134;-70
2024/03/29 00:43:04;;;;;;;19.77;18.48;;;6.80;99.90;;;;;;4937581;28;20081;-70
2024/03/29 00:45:30;;;;;;;20.27;18.95;;;6.70;99.90;;;;;;4953626;28;20136;-68
2024/03/29 00:47:56;;;;;;;20.75;19.00;;;6.50;99.90;;;;;;4953425;28;20041;-69
2024/03/29 00:50:22;;;;;;;20.45;19.15;;;6.40;99.90;;;;;;4952246;28;20528;-70
2024/03/29 00:52:48;;;;;;;21.48;19.70;;;6.30;99.90;;;;;;4958227;28;21046;-70
2024/03/29 00:55:15;;;;;;;20.88;19.40;;;6.20;99.90;;;;;;4955145;28;21214;-69
2024/03/29 00:57:41;;;;;;;21.42;19.70;;;6.10;99.90;;;;;;4950953;28;20038;-70
2024/03/29 01:00:09;;;;;;;20.33;18.70;;;6.10;99.90;;;;;;4954823;28;20377;-70
2024/03/29 01:02:36;;;;;;;20.60;19.00;;;6.10;99.90;;;;;;4954833;28;20049;-70
2024/03/29 01:05:03;;;;;;;20.25;18.88;;;6.10;99.90;;;;;;4954049;28;20089;-70
2024/03/29 01:07:29;;;;;;;20.42;19.02;;;6.10;99.90;;;;;;4956313;28;20057;-69
2024/03/29 01:09:55;;;;;;;20.20;18.50;;;6.00;99.90;;;;;;4960420;28;20049;-70
2024/03/29 01:12:22;;;;;;;19.58;18.23;;;6.00;99.90;;;;;;4953520;28;20057;-69
2024/03/29 01:14:48;;;;;;;19.75;18.00;;;6.00;99.90;;;;;;4974186;28;20337;-68
2024/03/29 01:17:14;;;;;;;19.33;17.77;;;5.90;99.90;;;;;;4970124;28;20038;-69
2024/03/29 01:19:40;;;;;;;19.25;17.70;;;5.80;99.90;;;;;;4973707;28;20046;-70
2024/03/29 01:22:08;;;;;;;19.65;18.25;;;5.80;99.90;;;;;;4968803;28;20034;-70
2024/03/29 01:24:34;;;;;;;19.27;17.70;;;5.70;99.90;;;;;;4967464;28;20050;-68
2024/03/29 01:27:00;;;;;;;18.50;17.20;;;5.70;99.90;;;;;;4949978;28;20659;-68
2024/03/29 01:29:27;;;;;;;18.42;17.23;;;5.70;99.90;;;;;;4953787;28;20042;-70
2024/03/29 01:31:53;;;;;;;18.00;16.80;;;5.60;99.90;;;;;;4968545;28;20081;-70
2024/03/29 01:34:20;;;;;;;18.15;16.90;;;5.60;99.90;;;;;;4972275;28;20038;-70
2024/03/29 01:36:46;;;;;;;18.05;16.70;;;5.70;99.90;;;;;;4941353;28;20042;-70
2024/03/29 01:39:15;;;;;;;18.98;17.15;;;5.70;99.90;;;;;;4973131;28;20478;-70
2024/03/29 01:41:41;;;;;;;18.05;16.73;;;5.80;99.90;;;;;;4956338;28;20042;-71
2024/03/29 01:44:07;;;;;;;18.35;17.25;;;5.80;99.90;;;;;;4952835;28;20054;-68
2024/03/29 01:46:36;;;;;;;17.98;16.65;;;5.90;99.90;;;;;;4961662;28;20041;-70
2024/03/29 01:49:02;;;;;;;18.27;16.98;;;6.00;99.90;;;;;;4953660;28;20047;-69
2024/03/29 01:51:28;;;;;;;17.70;16.70;;;6.00;99.90;;;;;;4952969;28;20065;-70
2024/03/29 01:53:55;;;;;;;17.48;16.48;;;6.10;99.90;;;;;;4951372;28;20046;-70
2024/03/29 01:56:23;;;;;;;18.40;17.13;;;6.10;99.90;;;;;;4954799;28;20038;-68
2024/03/29 01:58:54;;;;;;;18.05;16.85;;;6.00;99.90;;;;;;4965545;28;20088;-69
2024/03/29 02:01:21;;;;;;;17.23;16.10;;;6.10;99.90;;;;;;4968530;28;20042;-68
2024/03/29 02:03:48;;;;;;;17.45;16.25;;;6.10;99.90;;;;;;4967967;28;20523;-70
2024/03/29 02:06:15;;;;;;;17.15;16.02;;;6.10;99.90;;;;;;4938933;28;20539;-69
2024/03/29 02:08:42;;;;;;;17.70;16.38;;;6.10;99.90;;;;;;4951723;28;20053;-69
2024/03/29 02:11:08;;;;;;;17.27;16.17;;;6.20;99.90;;;;;;4966355;28;20121;-69
2024/03/29 02:13:34;;;;;;;16.90;15.88;;;6.20;99.90;;;;;;4953043;28;20057;-66
2024/03/29 02:16:01;;;;;;;17.67;16.52;;;6.20;99.90;;;;;;4952264;28;20182;-68
2024/03/29 02:18:27;;;;;;;16.98;15.90;;;6.20;99.90;;;;;;4962963;28;20594;-69
2024/03/29 02:20:53;;;;;;;17.75;16.58;;;6.20;99.90;;;;;;4949532;28;20061;-68
2024/03/29 02:23:24;;;;;;;18.60;15.85;;;6.30;99.90;;;;;;4955207;28;21128;-69
2024/03/29 02:25:50;;;;;;;17.05;15.90;;;6.20;99.90;;;;;;4950912;28;20038;-68
2024/03/29 02:28:16;;;;;;;16.48;15.68;;;6.30;99.90;;;;;;4951854;28;20509;-68
2024/03/29 02:30:42;;;;;;;17.60;16.40;;;6.40;99.90;;;;;;4967594;28;20126;-70
2024/03/29 02:33:09;;;;;;;17.30;16.20;;;6.40;99.90;;;;;;4950895;28;20050;-70
2024/03/29 02:35:35;;;;;;;16.67;15.70;;;6.40;99.90;;;;;;4947499;28;20861;-67
2024/03/29 02:38:01;;;;;;;17.00;16.05;;;6.50;99.90;;;;;;4947309;28;20053;-67
2024/03/29 02:40:27;;;;;;;16.55;15.65;;;6.50;99.90;;;;;;4945362;28;20043;-69
2024/03/29 02:42:53;;;;;;;16.58;15.55;;;6.50;99.90;;;;;;4935867;28;20057;-69
2024/03/29 02:45:19;;;;;;;17.42;16.10;;;6.60;99.90;;;;;;4953799;28;20035;-70
2024/03/29 02:47:45;;;;;;;17.42;16.40;;;6.60;99.90;;;;;;4949297;28;20046;-69
2024/03/29 02:50:13;;;;;;;18.60;17.10;;;6.60;99.90;;;;;;4969102;28;20090;-69
2024/03/29 02:52:40;;;;;;;17.85;16.63;;;6.70;99.90;;;;;;4951213;28;20153;-68
2024/03/29 02:55:06;;;;;;;17.55;16.48;;;6.70;99.90;;;;;;4949937;28;20042;-68
2024/03/29 02:57:32;;;;;;;17.63;16.35;;;6.60;99.90;;;;;;4949777;28;20089;-68
2024/03/29 02:59:59;;;;;;;17.98;16.75;;;6.70;99.90;;;;;;4947227;28;20044;-69
2024/03/29 03:02:25;;;;;;;17.98;16.63;;;6.70;99.90;;;;;;4967038;28;20081;-69
2024/03/29 03:04:51;;;;;;;18.05;16.85;;;6.80;99.90;;;;;;4949775;28;20062;-69
2024/03/29 03:12:47;;;;;;;19.13;17.38;;;6.80;99.90;;;;;;4966970;28;20046;-69
2024/03/29 03:15:13;;;;;;;18.27;16.88;;;6.80;99.90;;;;;;4971620;28;20034;-69
2024/03/29 03:17:39;;;;;;;17.92;16.83;;;6.80;99.90;;;;;;4969706;28;20038;-67
2024/03/29 03:20:06;;;;;;;17.85;16.55;;;6.80;99.90;;;;;;4947617;28;20050;-68
2024/03/29 03:22:33;;;;;;;18.13;16.85;;;6.80;99.90;;;;;;4936821;28;20097;-68
2024/03/29 03:24:59;;;;;;;18.20;17.00;;;6.90;99.90;;;;;;4933537;28;20057;-69
2024/03/29 03:27:24;;;;;;;17.67;16.38;;;6.90;99.90;;;;;;4949779;28;20047;-69
2024/03/29 03:29:51;;;;;;;18.20;16.80;;;6.90;99.90;;;;;;4966771;28;20125;-68
2024/03/29 03:32:17;;;;;;;17.65;16.45;;;6.90;99.90;;;;;;4968895;28;20038;-70
2024/03/29 03:34:43;;;;;;;18.08;16.65;;;6.90;99.90;;;;;;4950582;28;20045;-67
2024/03/29 03:37:09;;;;;;;18.33;16.92;;;6.90;99.90;;;;;;4950606;28;20070;-68
2024/03/29 03:39:36;;;;;;;17.98;16.55;;;6.90;99.90;;;;;;4932374;28;20093;-69
2024/03/29 03:42:02;;;;;;;17.45;16.25;;;7.00;99.90;;;;;;4946937;28;20053;-68
2024/03/29 03:44:28;;;;;;;17.50;16.45;;;7.00;99.90;;;;;;4931324;28;20076;-68
2024/03/29 03:46:55;;;;;;;17.98;16.60;;;7.00;99.90;;;;;;4945342;28;20047;-69
2024/03/29 03:49:21;;;;;;;18.48;17.02;;;7.00;99.90;;;;;;4953504;28;20046;-68
2024/03/29 03:51:47;;;;;;;18.10;16.90;;;7.00;99.90;;;;;;4944892;28;20049;-68
2024/03/29 03:54:14;;;;;;;19.20;17.40;;;7.00;99.90;;;;;;4930002;28;20051;-69
2024/03/29 03:56:40;;;;;;;18.17;16.73;;;7.00;99.90;;;;;;4934611;28;20167;-67
2024/03/29 03:59:06;;;;;;;17.85;16.70;;;7.00;99.90;;;;;;4918280;28;20512;-67
2024/03/29 04:01:33;;;;;;;17.75;16.73;;;7.10;99.90;;;;;;4953388;28;20043;-69
2024/03/29 04:04:00;;;;;;;17.83;16.73;;;7.10;99.90;;;;;;4935156;28;20047;-67
2024/03/29 04:06:27;;;;;;;19.27;17.70;;;7.10;99.90;;;;;;4951698;28;20036;-70
2024/03/29 04:08:53;;;;;;;17.95;16.90;;;7.10;99.90;;;;;;4937137;28;20062;-68
2024/03/29 04:11:20;;;;;;;18.60;17.17;;;7.10;99.90;;;;;;4917382;28;20051;-70
2024/03/29 04:13:46;;;;;;;18.30;17.10;;;7.10;99.90;;;;;;4949205;28;20043;-67
2024/03/29 04:16:12;;;;;;;18.10;17.00;;;7.00;99.90;;;;;;4961188;28;20417;-68
2024/03/29 04:18:38;;;;;;;18.77;17.20;;;7.00;99.90;;;;;;4934191;28;20203;-68
2024/03/29 04:21:05;;;;;;;18.27;17.08;;;7.00;99.90;;;;;;4945024;28;20058;-69
2024/03/29 04:23:31;;;;;;;17.70;16.50;;;7.00;99.90;;;;;;4936007;28;20536;-68
2024/03/29 04:25:59;;;;;;;18.80;17.40;;;7.10;99.90;;;;;;4934535;28;20074;-69
2024/03/29 04:28:26;;;;;;;18.73;17.35;;;7.10;99.90;;;;;;4934815;28;20129;-69
2024/03/29 04:30:57;;;;;;;18.20;16.73;;;7.10;99.90;;;;;;4947705;28;20097;-67
2024/03/29 04:33:24;;;;;;;18.33;17.13;;;7.10;99.90;;;;;;4915777;28;20058;-69
2024/03/29 04:35:55;;;;;;;19.27;17.60;;;7.20;99.90;;;;;;4912246;28;20059;-69
2024/03/29 04:38:22;;;;;;;18.45;17.25;;;7.20;99.90;;;;;;4947202;28;20050;-69
2024/03/29 04:40:50;;;;;;;18.77;17.50;;;7.20;99.90;;;;;;4932915;28;20690;-69
2024/03/29 04:43:16;;;;;;;18.58;17.27;;;7.20;99.90;;;;;;4935041;28;20061;-68
2024/03/29 04:45:45;;;;;;;18.40;17.13;;;7.30;99.90;;;;;;4929657;28;20051;-67
2024/03/29 04:48:12;;;;;;;20.00;18.17;;;7.30;99.90;;;;;;4935896;28;21603;-68
2024/03/29 04:50:39;;;;;;;18.65;17.45;;;7.30;99.90;;;;;;4934474;28;20166;-68
2024/03/29 04:53:05;;;;;;;19.65;17.95;;;7.30;99.90;;;;;;4954584;28;20110;-68
2024/03/29 04:55:31;;;;;;;18.58;17.30;;;7.20;99.90;;;;;;4915389;28;20058;-67
2024/03/29 04:57:57;;;;;;;19.25;17.73;;;7.30;99.90;;;;;;4947264;28;20046;-70
2024/03/29 05:00:23;;;;;;;20.27;18.50;;;7.30;99.90;;;;;;4933474;28;20133;-70
2024/03/29 05:02:51;;;;;;;20.10;18.60;;;7.30;99.90;;;;;;4950110;28;20047;-69
2024/03/29 05:05:17;;;;;;;19.48;18.17;;;7.30;99.90;;;;;;4935097;28;20054;-70
2024/03/29 05:07:43;;;;;;;19.77;18.17;;;7.40;99.90;;;;;;4938228;28;20050;-70
2024/03/29 05:10:09;;;;;;;20.00;18.38;;;7.40;99.90;;;;;;4951997;28;20042;-68
2024/03/29 05:12:36;;;;;;;20.38;18.50;;;7.50;99.90;;;;;;4938645;28;20045;-69
2024/03/29 05:15:02;;;;;;;20.50;18.77;;;7.50;99.90;;;;;;4933181;28;20050;-69
2024/03/29 05:17:28;;;;;;;19.60;18.00;;;7.50;99.90;;;;;;4951849;28;20079;-71
2024/03/29 05:19:55;;;;;;;19.88;18.25;;;7.50;99.90;;;;;;4935267;28;20069;-69
2024/03/29 05:22:21;;;;;;;20.42;18.90;;;7.50;99.90;;;;;;4951205;28;20650;-69
2024/03/29 05:24:47;;;;;;;20.73;19.33;;;7.50;99.90;;;;;;4933054;28;20039;-69
2024/03/29 05:27:14;;;;;;;20.08;18.38;;;7.60;99.90;;;;;;4943468;28;20078;-69
2024/03/29 05:29:40;;;;;;;19.17;17.98;;;7.50;99.90;;;;;;4964610;28;20050;-70
2024/03/29 05:32:10;;;;;;;19.88;18.27;;;7.50;99.90;;;;;;4936396;28;20508;-70
2024/03/29 05:34:36;;;;;;;19.05;17.83;;;7.50;99.90;;;;;;4954945;28;20047;-69
2024/03/29 05:37:02;;;;;;;19.45;18.05;;;7.60;99.90;;;;;;4936694;28;20418;-69
2024/03/29 05:39:28;;;;;;;19.67;18.20;;;7.50;99.90;;;;;;4940067;28;20045;-70
2024/03/29 05:41:54;;;;;;;19.42;17.92;;;7.50;99.90;;;;;;4932969;28;20043;-70
2024/03/29 05:44:20;;;;;;;23.95;22.27;;;7.50;99.90;;;;;;4916946;28;20125;-69
2024/03/29 05:46:47;;;;;;;18.27;17.17;;;7.40;99.90;;;;;;4940872;28;20042;-68
2024/03/29 05:49:13;;;;;;;19.83;18.27;;;7.40;99.90;;;;;;4935940;28;20051;-69
2024/03/29 05:51:39;;;;;;;21.00;18.92;;;7.40;99.90;;;;;;4955266;28;20043;-68
2024/03/29 05:54:05;;;;;;;20.35;18.67;;;7.40;99.90;;;;;;4955537;28;20518;-70
2024/03/29 05:56:32;;;;;;;19.75;18.30;;;7.50;99.90;;;;;;4953184;28;21133;-68
2024/03/29 05:58:58;;;;;;;24.67;22.25;;;7.60;99.90;;;;;;4946429;28;20054;-69
2024/03/29 06:01:24;;;;;;;33.17;26.85;;;7.60;99.90;;;;;;4933015;28;20043;-69
2024/03/29 06:03:54;;;;;;;29.15;26.25;;;7.50;99.90;;;;;;4939351;28;20042;-70
2024/03/29 06:06:24;;;;;;;33.97;30.65;;;7.40;99.90;;;;;;4933996;28;20045;-68
2024/03/29 06:08:51;;;;;;;34.00;30.95;;;7.30;99.90;;;;;;4946844;28;20179;-68
2024/03/29 06:11:17;;;;;;;34.33;30.65;;;7.30;99.90;;;;;;4957115;28;20058;-70
2024/03/29 06:19:05;;;;;;;29.85;27.05;;;7.20;99.90;;;;;;4955146;28;20050;-70
2024/03/29 06:21:40;;;;;;;29.98;27.20;;;7.30;99.90;;;;;;4923858;28;20045;-69
2024/03/29 06:24:08;;;;;;;26.00;23.63;;;7.20;99.90;;;;;;4951999;28;20061;-69
2024/03/29 06:26:35;;;;;;;25.23;23.25;;;7.10;99.90;;;;;;4951231;28;20104;-70
2024/03/29 06:29:02;;;;;;;26.25;24.05;;;7.10;99.90;;;;;;4925940;28;20039;-68
2024/03/29 06:31:29;;;;;;;26.48;23.90;;;7.00;99.90;;;;;;4951150;28;20046;-69
2024/03/29 06:33:56;;;;;;;25.85;23.75;;;7.00;99.90;;;;;;4935787;28;20069;-69
2024/03/29 06:36:22;;;;;;;22.35;20.90;;;7.10;99.90;;;;;;4951564;28;20046;-69
2024/03/29 06:38:48;;;;;;;23.67;21.75;;;7.00;99.90;;;;;;4942060;28;20440;-68
2024/03/29 06:41:14;;;;;;;22.75;21.10;;;7.00;99.90;;;;;;4918252;28;21329;-68
2024/03/29 06:43:44;;;;;;;22.65;20.35;;;6.90;99.90;;;;;;4939564;28;20241;-68
2024/03/29 06:46:11;;;;;;;22.25;20.65;;;7.00;99.90;;;;;;4948135;28;21147;-68
2024/03/29 06:48:37;;;;;;;19.27;17.98;;;7.00;99.90;;;;;;4932878;28;20656;-68
2024/03/29 06:51:04;;;;;;;17.63;16.42;;;6.90;99.90;;;;;;4926426;28;20058;-67
2024/03/29 06:53:30;;;;;;;17.17;16.17;;;6.80;99.90;;;;;;4946144;28;20054;-69
2024/03/29 06:55:59;;;;;;;17.77;16.40;;;6.80;99.90;;;;;;4945495;28;20063;-67
2024/03/29 06:58:25;;;;;;;17.38;15.90;;;6.80;99.90;;;;;;4941025;28;20051;-70
2024/03/29 07:00:52;;;;;;;15.90;14.88;;;6.80;99.90;;;;;;4931322;28;20097;-67
2024/03/29 07:03:18;;;;;;;17.30;15.90;;;6.80;99.90;;;;;;4919898;28;20129;-69
2024/03/29 07:05:48;;;;;;;15.77;14.73;;;6.90;99.90;;;;;;4946144;28;20102;-69
2024/03/29 07:08:14;;;;;;;15.40;14.43;;;6.90;99.90;;;;;;4942107;28;20059;-69
2024/03/29 07:10:40;;;;;;;15.48;14.57;;;6.90;99.90;;;;;;4932222;28;20060;-69
2024/03/29 07:13:07;;;;;;;16.80;15.77;;;7.00;99.90;;;;;;4916034;28;20066;-69
2024/03/29 07:15:33;;;;;;;17.65;16.20;;;7.00;99.90;;;;;;4935414;28;20784;-70
2024/03/29 07:18:02;;;;;;;16.15;15.02;;;7.00;99.90;;;;;;4930347;28;20054;-68
2024/03/29 07:20:29;;;;;;;18.30;17.00;;;7.00;99.90;;;;;;4948400;28;20081;-70
2024/03/29 07:22:55;;;;;;;17.33;16.02;;;7.10;99.90;;;;;;4949298;28;20061;-68
2024/03/29 07:25:22;;;;;;;17.85;16.65;;;7.20;99.90;;;;;;4953116;28;20120;-69
2024/03/29 07:27:48;;;;;;;16.17;15.27;;;7.30;99.90;;;;;;4950657;28;20499;-69
2024/03/29 07:30:16;;;;;;;17.02;15.93;;;7.30;99.90;;;;;;4933333;28;20059;-69
2024/03/29 07:32:43;;;;;;;16.58;15.60;;;7.40;99.90;;;;;;4939121;28;20047;-69
2024/03/29 07:35:09;;;;;;;16.58;15.65;;;7.40;99.90;;;;;;4930113;28;20054;-67
2024/03/29 07:37:35;;;;;;;17.50;16.48;;;7.50;99.90;;;;;;4925328;28;20054;-68
2024/03/29 07:40:01;;;;;;;16.45;15.60;;;7.50;99.90;;;;;;4926729;28;20054;-68
2024/03/29 07:42:27;;;;;;;16.13;15.32;;;7.50;99.90;;;;;;4947834;28;20226;-69
2024/03/29 07:44:54;;;;;;;17.10;16.00;;;7.50;99.90;;;;;;4946553;28;20424;-69
2024/03/29 07:47:21;;;;;;;16.52;15.63;;;7.50;99.90;;;;;;4939633;28;20042;-68
2024/03/29 07:49:48;;;;;;;15.27;14.43;;;7.50;99.90;;;;;;4956905;28;20047;-68
2024/03/29 07:52:14;;;;;;;14.52;13.80;;;7.40;99.90;;;;;;4935003;28;20053;-69
2024/03/29 07:54:41;;;;;;;15.02;14.02;;;7.40;99.90;;;;;;4939600;28;20043;-69
2024/03/29 07:57:08;;;;;;;15.20;14.30;;;7.40;99.90;;;;;;4931004;28;20034;-71
2024/03/29 07:59:35;;;;;;;14.95;14.25;;;7.40;99.90;;;;;;4934967;28;20050;-72
2024/03/29 08:02:02;;;;;;;13.75;12.73;;;7.50;99.90;;;;;;4933568;28;20086;-72
2024/03/29 08:04:28;;;;;;;13.85;12.88;;;7.50;99.90;;;;;;4934184;28;20609;-72
2024/03/29 08:06:55;;;;;;;14.15;13.30;;;7.50;99.90;;;;;;4938311;28;20078;-70
2024/03/29 08:09:20;;;;;;;14.13;13.27;;;7.50;99.90;;;;;;4913092;28;20059;-71
2024/03/29 08:11:47;;;;;;;14.75;13.85;;;7.60;99.90;;;;;;4937462;28;20554;-70
2024/03/29 08:14:12;;;;;;;14.88;14.18;;;7.60;99.90;;;;;;4950507;28;20081;-70
2024/03/29 08:16:39;;;;;;;15.93;14.55;;;7.60;99.90;;;;;;4932824;28;20050;-71
2024/03/29 08:19:05;;;;;;;14.52;13.75;;;7.70;99.90;;;;;;4953710;28;20054;-70
2024/03/29 08:21:31;;;;;;;14.77;14.07;;;7.70;99.90;;;;;;4942781;28;20037;-70
2024/03/29 08:23:57;;;;;;;16.40;15.18;;;7.80;99.90;;;;;;4934713;28;20129;-68
2024/03/29 08:26:24;;;;;;;15.48;14.60;;;7.80;99.90;;;;;;4946730;28;20042;-69
2024/03/29 08:28:50;;;;;;;16.10;15.20;;;7.90;99.90;;;;;;4940458;28;20039;-70
2024/03/29 08:31:16;;;;;;;16.65;15.38;;;7.90;99.90;;;;;;4921112;28;20425;-70
2024/03/29 08:33:43;;;;;;;15.80;15.00;;;7.90;99.90;;;;;;4949310;28;20081;-69
2024/03/29 08:36:10;;;;;;;19.17;18.30;;;7.90;99.90;;;;;;4931892;28;20047;-67
2024/03/29 08:38:41;;;;;;;19.17;18.02;;;8.00;99.90;;;;;;4931410;28;20169;-71
2024/03/29 08:41:07;;;;;;;19.02;18.13;;;8.00;99.90;;;;;;4930844;28;20043;-70
2024/03/29 08:43:34;;;;;;;18.05;16.85;;;8.10;99.90;;;;;;4934605;28;20186;-70
2024/03/29 08:46:00;;;;;;;17.90;16.90;;;8.10;99.90;;;;;;4913236;28;20062;-68
2024/03/29 08:48:27;;;;;;;19.92;18.92;;;8.10;99.90;;;;;;4930657;28;20573;-70
2024/03/29 08:50:54;;;;;;;19.60;18.60;;;8.20;99.90;;;;;;4935216;28;20515;-70
2024/03/29 08:53:21;;;;;;;18.17;16.98;;;8.20;99.90;;;;;;4951311;28;20047;-70
2024/03/29 08:55:50;;;;;;;17.75;16.58;;;8.30;99.90;;;;;;4923494;28;20042;-68
2024/03/29 08:58:18;;;;;;;16.60;15.88;;;8.30;99.90;;;;;;4933814;28;20055;-69
2024/03/29 09:00:53;;;;;;;17.40;16.50;;;8.40;99.90;;;;;;4953871;28;20043;-70
2024/03/29 09:03:20;;;;;;;18.95;17.95;;;8.50;99.90;;;;;;4958731;28;20047;-70
2024/03/29 09:05:46;;;;;;;18.30;17.33;;;8.60;99.90;;;;;;4954466;28;20477;-70
2024/03/29 09:08:12;;;;;;;18.75;17.75;;;8.60;99.90;;;;;;4933549;28;20078;-68
2024/03/29 09:10:38;;;;;;;19.17;18.05;;;8.60;99.90;;;;;;4937770;28;20638;-69
2024/03/29 09:13:07;;;;;;;18.92;17.92;;;8.70;99.90;;;;;;4934936;28;20100;-69
2024/03/29 09:15:33;;;;;;;19.98;18.58;;;8.80;99.90;;;;;;4953673;28;20051;-69
2024/03/29 09:18:02;;;;;;;19.00;17.92;;;8.80;99.90;;;;;;4929706;28;20093;-69
2024/03/29 09:20:29;;;;;;;19.52;18.50;;;8.90;99.90;;;;;;4936505;28;20066;-70
2024/03/29 09:22:56;;;;;;;19.83;18.77;;;9.00;99.90;;;;;;4919541;28;20516;-71
2024/03/29 09:25:22;;;;;;;20.30;19.10;;;9.00;99.90;;;;;;4926804;28;20066;-70
2024/03/29 09:27:48;;;;;;;21.10;19.83;;;9.10;99.90;;;;;;4943834;28;20047;-70
2024/03/29 09:30:15;;;;;;;20.80;19.52;;;9.20;99.90;;;;;;4946180;28;20138;-70
2024/03/29 09:32:41;;;;;;;20.75;19.55;;;9.20;99.90;;;;;;4915577;28;20047;-70
2024/03/29 09:35:07;;;;;;;22.55;20.90;;;9.30;99.90;;;;;;4930214;28;20051;-70
2024/03/29 09:37:37;;;;;;;20.77;19.58;;;9.40;99.90;;;;;;4932494;28;20039;-69
2024/03/29 09:40:04;;;;;;;20.60;19.45;;;9.40;99.90;;;;;;4936577;28;20093;-68
2024/03/29 09:42:33;;;;;;;20.23;19.10;;;9.50;99.90;;;;;;4944399;28;20042;-71
2024/03/29 09:45:03;;;;;;;20.10;18.85;;;9.60;99.90;;;;;;4950664;28;20059;-69
2024/03/29 09:47:31;;;;;;;20.10;18.95;;;9.70;99.90;;;;;;4968062;28;20046;-69
2024/03/29 09:50:06;;;;;;;19.88;18.88;;;9.70;99.90;;;;;;4952245;28;20050;-70
2024/03/29 09:52:32;;;;;;;;;;;9.70;99.90;;;;;;4951651;28;20700;-70
2024/03/29 09:55:01;;;;;;;19.65;18.58;;;9.80;99.90;;;;;;4950427;28;19921;-67
2024/03/29 09:57:30;;;;;;;19.98;18.88;;;9.90;99.90;;;;;;4943697;28;20046;-70
2024/03/29 09:59:59;;;;;;;20.65;19.55;;;9.90;99.90;;;;;;4964734;28;20054;-70
2024/03/29 10:02:30;;;;;;;20.38;19.27;;;10.00;99.90;;;;;;4949077;28;20228;-70
2024/03/29 10:04:58;;;;;;;20.65;19.45;;;10.00;99.90;;;;;;4968320;28;20054;-67
2024/03/29 10:07:25;;;;;;;19.60;18.50;;;10.00;99.90;;;;;;4946357;28;21290;-70
2024/03/29 10:09:53;;;;;;;19.83;18.83;;;9.90;99.90;;;;;;4951759;28;20051;-70
2024/03/29 10:12:19;;;;;;;19.55;18.45;;;10.00;99.90;;;;;;4947272;28;20698;-70
2024/03/29 10:14:51;;;;;;;18.73;17.77;;;10.00;99.90;;;;;;4963359;28;20111;-70
2024/03/29 10:17:19;;;;;;;23.50;22.30;;;10.00;99.90;;;;;;4948642;28;20042;-70
2024/03/29 10:19:46;;;;;;;24.38;22.40;;;10.30;99.90;;;;;;4947453;28;20085;-70
2024/03/29 10:22:13;;;;;;;20.98;19.75;;;10.80;99.90;;;;;;4944107;28;20500;-69
2024/03/29 10:24:39;;;;;;;20.25;19.05;;;11.00;99.90;;;;;;4981721;28;20093;-69
2024/03/29 10:27:06;;;;;;;22.73;20.48;;;11.00;99.90;;;;;;4965609;28;20097;-68
2024/03/29 10:29:32;;;;;;;21.42;20.13;;;10.90;99.90;;;;;;4949695;28;20046;-68
2024/03/29 10:31:58;;;;;;;22.90;21.15;;;10.80;99.90;;;;;;4996026;28;20046;-70
2024/03/29 10:34:25;;;;;;;21.95;20.85;;;10.80;99.90;;;;;;4953138;28;20053;-69
2024/03/29 10:36:51;;;;;;;19.98;18.98;;;10.70;99.90;;;;;;4933886;28;20113;-68
2024/03/29 10:39:17;;;;;;;19.65;18.73;;;10.80;99.90;;;;;;4967162;28;20050;-70
2024/03/29 10:41:47;;;;;;;22.90;21.65;;;10.90;99.90;;;;;;4968049;28;20035;-70
2024/03/29 10:44:14;;;;;;;22.48;21.38;;;11.00;99.90;;;;;;4965256;28;20400;-69
2024/03/29 10:46:41;;;;;;;24.02;22.83;;;11.10;99.90;;;;;;4948095;28;20117;-69
2024/03/29 10:49:09;;;;;;;24.02;22.83;;;11.10;99.90;;;;;;4950984;28;20038;-70
2024/03/29 10:51:41;;;;;;;23.95;22.75;;;11.10;99.90;;;;;;4951074;28;20068;-70
2024/03/29 10:54:11;;;;;;;23.58;22.35;;;11.10;99.90;;;;;;4965874;28;20186;-68
2024/03/29 10:56:42;;;;;;;23.50;22.25;;;11.00;99.90;;;;;;4968734;28;20134;-70
2024/03/29 10:59:35;;;;;;;22.23;21.13;;;10.90;99.90;;;;;;4950279;28;20054;-70
2024/03/29 11:02:17;;;;;;;21.13;20.02;;;10.70;99.90;;;;;;4946571;28;20046;-69
2024/03/29 11:04:46;;;;;;;21.50;20.30;;;10.90;99.90;;;;;;4954040;28;20159;-70
2024/03/29 11:07:22;;;;;;;21.38;20.10;;;10.80;99.90;;;;;;4971167;28;20038;-69
2024/03/29 11:09:52;;;;;;;21.30;20.17;;;10.80;99.90;;;;;;4946987;28;20070;-69
2024/03/29 11:12:22;;;;;;;21.20;19.90;;;10.90;99.90;;;;;;4937765;28;20627;-69
2024/03/29 11:15:00;;;;;;;22.42;21.13;;;10.90;99.90;;;;;;4954338;28;20102;-67
2024/03/29 11:17:30;;;;;;;23.10;21.90;;;11.00;99.90;;;;;;4946246;28;20544;-69
2024/03/29 11:19:59;;;;;;;23.00;21.80;;;10.90;99.90;;;;;;4939284;28;20117;-68
2024/03/29 11:22:27;;;;;;;22.48;21.25;;;11.00;99.90;;;;;;4946944;28;20046;-70
2024/03/29 11:24:53;;;;;;;23.05;21.55;;;11.10;99.90;;;;;;4974114;28;20054;-69
2024/03/29 11:27:23;;;;;;;23.88;22.65;;;11.10;99.90;;;;;;4952591;28;20050;-67
2024/03/29 11:29:52;;;;;;;22.98;21.80;;;11.20;99.90;;;;;;4968702;28;20113;-70
2024/03/29 11:32:35;;;;;;;23.23;22.05;;;11.20;99.90;;;;;;4953530;28;20051;-68
2024/03/29 11:35:02;;;;;;;22.58;21.33;;;11.20;99.90;;;;;;4957781;28;20116;-71
2024/03/29 11:37:32;;;;;;;22.95;21.65;;;11.10;99.90;;;;;;4933808;28;20047;-71
2024/03/29 11:40:02;;;;;;;22.85;21.55;;;11.10;99.90;;;;;;4940636;28;20050;-69
2024/03/29 11:42:45;;;;;;;24.27;22.88;;;11.10;99.90;;;;;;4931852;28;20035;-70
2024/03/29 11:45:11;;;;;;;23.45;22.20;;;11.00;99.90;;;;;;4918887;28;20640;-69
2024/03/29 11:47:41;;;;;;;24.52;23.13;;;11.00;99.90;;;;;;4947866;28;20414;-69
2024/03/29 11:50:08;;;;;;;23.63;22.20;;;11.00;99.90;;;;;;4946578;28;20081;-70
2024/03/29 11:52:35;;;;;;;24.45;22.77;;;11.00;99.90;;;;;;4956968;28;20061;-69
2024/03/29 11:55:02;;;;;;;23.38;22.17;;;11.00;99.90;;;;;;4952676;28;20042;-69
2024/03/29 11:57:30;;;;;;;24.85;23.45;;;11.10;99.90;;;;;;4960913;28;20046;-69
2024/03/29 11:59:57;;;;;;;22.10;20.70;;;11.10;99.90;;;;;;4956806;28;20662;-69
2024/03/29 12:02:23;;;;;;;21.20;20.13;;;11.00;99.90;;;;;;4968489;28;20617;-70
2024/03/29 12:04:50;;;;;;;21.67;20.52;;;11.10;99.90;;;;;;4954974;28;20049;-68
2024/03/29 12:07:16;;;;;;;21.35;20.15;;;11.20;99.90;;;;;;4933264;28;20667;-70
2024/03/29 12:09:42;;;;;;;23.95;22.70;;;11.20;99.90;;;;;;4955218;28;20050;-69
2024/03/29 12:12:09;;;;;;;23.30;22.10;;;11.40;99.90;;;;;;4969609;28;20046;-68
2024/03/29 12:14:37;;;;;;;23.48;22.27;;;11.50;99.90;;;;;;4962209;28;20050;-68
2024/03/29 12:17:12;;;;;;;23.23;22.08;;;11.50;99.90;;;;;;4969123;28;20034;-69
2024/03/29 12:19:42;;;;;;;23.02;21.73;;;11.50;99.90;;;;;;4952795;28;20781;-69
2024/03/29 12:22:09;;;;;;;23.52;22.02;;;11.60;99.90;;;;;;4940223;28;20085;-70
2024/03/29 12:24:36;;;;;;;23.10;21.80;;;11.60;99.90;;;;;;4942755;28;20136;-69
2024/03/29 12:27:02;;;;;;;24.08;22.40;;;11.60;99.90;;;;;;4933346;28;20101;-68
2024/03/29 12:29:29;;;;;;;23.38;22.05;;;11.70;99.90;;;;;;4948288;28;20043;-69
2024/03/29 12:32:02;;;;;;;23.10;21.58;;;11.80;99.90;;;;;;4953064;28;20043;-69
2024/03/29 12:34:28;;;;;;;24.08;22.88;;;11.70;99.90;;;;;;4955643;28;20660;-70
2024/03/29 12:36:54;;;;;;;26.17;24.77;;;11.60;99.90;;;;;;4943814;28;20034;-69
2024/03/29 12:39:21;;;;;;;24.80;23.40;;;11.70;99.90;;;;;;4949513;28;20085;-69
2024/03/29 12:41:47;;;;;;;24.48;23.15;;;11.80;99.90;;;;;;4970984;28;20700;-69
2024/03/29 12:44:13;;;;;;;25.10;23.50;;;11.80;99.90;;;;;;4933271;28;20039;-70
2024/03/29 12:46:40;;;;;;;23.50;22.30;;;11.90;99.90;;;;;;4965691;28;20539;-69